Time;durP1;ratioP1;P1;durP2;ratioP2;P2;SDS_P1;SDS_P2;PMS_P1;PMS_P2;Temp;Humidity;BMP_temperature;BMP_pressure;BME280_temperature;BME280_humidity;BME280_pressure;Samples;Min_cycle;Max_cycle;Signal;HPM_P1;HPM_P2
2021/06/09 16:03:18;;;;;;;9.17;4.20;;;;;;;25.64;36.96;98894.70;125814;1092;102907;-73
2021/06/09 16:05:47;;;;;;;10.07;4.50;;;;;;;25.68;36.95;98887.73;125676;1093;103209;-74
2021/06/09 16:08:15;;;;;;;7.53;4.33;;;;;;;25.71;36.98;98883.77;125824;1093;102932;-75
2021/06/09 16:10:44;;;;;;;6.40;3.80;;;;;;;25.71;37.12;98887.31;125967;1092;103065;-74
2021/06/09 16:13:14;;;;;;;8.67;4.43;;;;;;;25.76;37.21;98896.73;125709;1092;102943;-75
2021/06/09 16:15:47;;;;;;;8.03;4.03;;;;;;;25.78;36.94;98892.75;125687;1092;102940;-75
2021/06/09 16:18:21;;;;;;;9.47;4.77;;;;;;;25.81;36.66;98891.47;126542;1093;100687;-77
2021/06/09 16:20:52;;;;;;;11.83;4.43;;;;;;;25.82;36.96;98891.27;125996;1093;102909;-77
2021/06/09 16:23:21;;;;;;;7.77;4.40;;;;;;;25.83;36.94;98898.40;125895;1092;103023;-76
2021/06/09 16:25:51;;;;;;;8.87;4.20;;;;;;;25.82;36.90;98893.15;125683;1091;102940;-74
2021/06/09 16:28:21;;;;;;;8.47;4.27;;;;;;;25.79;36.71;98899.88;125738;1092;103036;-81
2021/06/09 16:30:50;;;;;;;8.80;4.13;;;;;;;25.78;36.53;98890.03;125733;1093;103249;-77
2021/06/09 16:33:19;;;;;;;11.47;5.30;;;;;;;25.74;36.87;98899.68;125699;1093;102918;-68
2021/06/09 16:35:47;;;;;;;9.45;4.60;;;;;;;25.70;37.20;98895.71;125584;1091;103068;-69
2021/06/09 16:38:17;;;;;;;11.77;5.07;;;;;;;25.68;37.12;98895.09;125717;1093;102984;-72
2021/06/09 16:40:46;;;;;;;11.07;4.53;;;;;;;25.63;36.81;98895.74;125693;1093;102913;-69
2021/06/09 16:43:15;;;;;;;10.77;4.67;;;;;;;25.52;37.18;98897.22;125611;1093;102929;-72
2021/06/09 16:45:47;;;;;;;18.17;4.90;;;;;;;25.42;36.88;98892.19;125722;1093;102892;-69
2021/06/09 16:48:19;;;;;;;8.75;4.73;;;;;;;25.33;37.07;98895.36;125708;1093;102999;-69
2021/06/09 16:50:49;;;;;;;12.53;4.33;;;;;;;25.24;36.67;98894.76;125719;1093;103035;-70
2021/06/09 16:53:18;;;;;;;8.80;4.53;;;;;;;25.17;36.76;98899.37;125730;1092;103073;-69
2021/06/09 17:01:26;;;;;;;16.30;5.93;;;;;;;24.86;37.61;98896.23;125730;1093;103107;-74
2021/06/09 17:03:57;;;;;;;14.13;5.10;;;;;;;24.79;37.13;98898.11;125664;1093;103039;-71
2021/06/09 17:06:30;;;;;;;10.93;5.33;;;;;;;24.70;37.59;98899.33;125687;1092;102933;-69
2021/06/09 17:09:00;;;;;;;;;;;;;;;24.59;37.27;98901.64;125653;1093;102916;-67
2021/06/09 17:11:30;;;;;;;13.40;5.90;;;;;;;24.50;37.18;98892.00;125707;1093;102964;-69
2021/06/09 17:14:01;;;;;;;14.93;4.70;;;;;;;24.42;37.28;98903.06;125732;1092;102910;-71
2021/06/09 17:16:31;;;;;;;9.63;4.80;;;;;;;24.34;37.80;98910.36;125662;1093;102941;-69
2021/06/09 17:19:01;;;;;;;11.00;5.30;;;;;;;24.27;37.62;98908.67;125704;1092;102919;-68
2021/06/09 17:21:29;;;;;;;11.30;5.03;;;;;;;24.19;37.49;98907.81;125512;1093;102908;-70
2021/06/09 17:23:59;;;;;;;15.95;5.40;;;;;;;24.11;37.74;98912.60;125730;1092;103000;-70
2021/06/09 17:26:28;;;;;;;13.13;5.20;;;;;;;24.02;37.72;98910.05;125646;1092;103064;-69
2021/06/09 17:29:00;;;;;;;8.93;4.70;;;;;;;23.92;38.28;98918.56;125645;1092;102991;-69
2021/06/09 17:31:29;;;;;;;12.30;5.30;;;;;;;23.84;37.93;98912.48;125657;1093;102964;-69
2021/06/09 17:33:58;;;;;;;13.23;5.73;;;;;;;23.77;38.41;98920.57;125477;1093;103335;-70
2021/06/09 17:36:27;;;;;;;10.63;5.80;;;;;;;23.69;38.24;98921.58;125729;1092;103097;-71
2021/06/09 17:38:56;;;;;;;13.83;6.70;;;;;;;23.61;38.11;98927.17;125606;1092;103029;-68
2021/06/09 17:41:29;;;;;;;13.67;6.03;;;;;;;23.53;38.41;98927.33;125716;1093;103053;-68
2021/06/09 17:44:03;;;;;;;14.07;6.17;;;;;;;23.46;38.67;98930.83;125699;1092;102992;-69
2021/06/09 17:46:31;;;;;;;12.90;5.47;;;;;;;23.39;38.45;98924.55;125668;1093;103506;-68
2021/06/09 17:49:00;;;;;;;15.27;5.97;;;;;;;23.33;38.76;98928.88;125723;1093;102990;-67
2021/06/09 17:51:30;;;;;;;16.05;6.10;;;;;;;23.30;38.44;98931.16;125628;1093;102923;-67
2021/06/09 17:54:02;;;;;;;16.03;6.80;;;;;;;23.24;38.87;98929.23;125654;1093;102994;-69
2021/06/09 17:56:33;;;;;;;16.13;5.83;;;;;;;23.18;38.82;98928.95;125635;1096;103006;-68
2021/06/09 17:59:04;;;;;;;14.10;5.40;;;;;;;23.13;38.99;98931.41;125608;1093;103501;-68
2021/06/09 18:01:43;;;;;;;18.60;5.90;;;;;;;23.06;39.33;98935.94;125589;1093;102922;-67
2021/06/09 18:04:15;;;;;;;15.70;5.20;;;;;;;23.00;39.31;98929.44;125590;1093;102910;-70
2021/06/09 18:06:44;;;;;;;16.70;6.70;;;;;;;22.95;39.46;98931.89;125568;1093;102938;-69
2021/06/09 18:09:12;;;;;;;18.73;6.07;;;;;;;22.89;39.60;98928.10;125556;1093;103146;-69
2021/06/09 18:11:41;;;;;;;16.77;6.40;;;;;;;22.83;39.66;98925.31;125566;1093;103079;-69
2021/06/09 18:14:09;;;;;;;14.50;6.13;;;;;;;22.74;39.54;98928.19;125588;1093;103042;-68
2021/06/09 18:16:38;;;;;;;16.67;6.50;;;;;;;22.67;39.59;98913.72;125588;1093;103074;-70
2021/06/09 18:19:07;;;;;;;21.00;7.70;;;;;;;22.61;39.75;98925.34;125642;1093;102913;-70
2021/06/09 18:21:36;;;;;;;19.00;8.90;;;;;;;22.56;39.98;98916.94;125602;1091;102922;-69
2021/06/09 18:24:07;;;;;;;21.47;8.50;;;;;;;22.51;39.92;98928.38;125619;1093;102932;-71
2021/06/09 18:26:35;;;;;;;20.67;8.23;;;;;;;22.46;39.84;98930.82;125619;1093;102995;-70
2021/06/09 18:29:04;;;;;;;19.83;8.13;;;;;;;22.44;40.17;98939.13;125602;1093;102909;-69
2021/06/09 18:31:35;;;;;;;40.43;12.93;;;;;;;22.41;39.92;98938.65;125656;1092;102934;-69
2021/06/09 18:34:05;;;;;;;34.63;15.07;;;;;;;22.36;40.04;98949.22;125664;1091;102964;-69
2021/06/09 18:36:35;;;;;;;39.27;17.03;;;;;;;22.29;40.19;98951.86;125592;1092;103037;-69
2021/06/09 18:39:04;;;;;;;35.97;15.27;;;;;;;22.22;40.43;98954.47;125682;1093;102999;-68
2021/06/09 18:41:32;;;;;;;37.50;15.27;;;;;;;22.15;40.33;98956.29;125655;1092;103412;-68
2021/06/09 18:44:01;;;;;;;27.27;12.10;;;;;;;22.05;40.80;98955.73;125547;1092;103033;-69
2021/06/09 18:46:30;;;;;;;24.10;8.57;;;;;;;21.92;40.49;98959.94;125591;1093;103031;-70
2021/06/09 18:49:00;;;;;;;20.03;7.93;;;;;;;21.81;40.27;98963.12;125620;1093;102909;-67
2021/06/09 18:51:31;;;;;;;20.30;7.80;;;;;;;21.71;40.86;98960.70;125682;1093;103046;-71
2021/06/09 18:53:59;;;;;;;15.13;6.57;;;;;;;21.65;40.72;98965.00;125647;1093;103036;-69
2021/06/09 18:56:29;;;;;;;15.25;6.65;;;;;;;21.61;40.59;98965.52;125674;1091;103039;-68
2021/06/09 18:58:58;;;;;;;20.50;8.90;;;;;;;21.59;40.92;98968.42;125647;1092;103046;-70
2021/06/09 19:01:26;;;;;;;18.93;7.83;;;;;;;21.58;40.62;98961.33;125663;1092;103154;-68
2021/06/09 19:03:55;;;;;;;25.77;9.97;;;;;;;21.56;40.89;98972.34;125673;1093;103087;-68
2021/06/09 19:06:26;;;;;;;24.25;10.40;;;;;;;21.54;40.93;98973.55;125687;1093;102922;-68
2021/06/09 19:08:59;;;;;;;24.33;11.97;;;;;;;21.51;41.28;98974.77;125690;1093;102936;-70
2021/06/09 19:11:29;;;;;;;30.28;12.70;;;;;;;21.46;41.27;98977.19;125639;1093;102994;-66
2021/06/09 19:14:01;;;;;;;34.97;16.60;;;;;;;21.43;41.30;98980.25;125663;1093;102921;-68
2021/06/09 19:16:32;;;;;;;37.07;16.70;;;;;;;21.41;41.38;98976.89;125666;1092;102911;-68
2021/06/09 19:19:02;;;;;;;35.10;15.23;;;;;;;21.40;40.90;98976.03;125655;1092;102940;-69
2021/06/09 19:21:33;;;;;;;31.60;14.03;;;;;;;21.36;41.69;98971.19;125625;1092;102911;-71
2021/06/09 19:24:04;;;;;;;33.63;15.13;;;;;;;21.32;41.59;98969.88;125587;1092;103132;-69
2021/06/09 19:26:35;;;;;;;37.70;15.97;;;;;;;21.30;41.72;98961.95;125639;1093;103073;-69
2021/06/09 19:29:06;;;;;;;36.97;16.07;;;;;;;21.31;41.84;98973.60;127592;1093;100776;-68
2021/06/09 19:31:37;;;;;;;29.80;13.55;;;;;;;21.31;41.82;98973.60;125637;1093;103094;-70
2021/06/09 19:34:12;;;;;;;29.90;12.63;;;;;;;21.30;41.97;98969.22;125646;1092;102954;-69
2021/06/09 19:36:47;;;;;;;25.70;9.93;;;;;;;21.31;42.03;98979.02;125698;1093;103008;-67
2021/06/09 19:39:16;;;;;;;20.17;8.10;;;;;;;21.30;42.17;98975.48;126557;1092;103093;-67
2021/06/09 19:41:46;;;;;;;24.73;8.70;;;;;;;21.30;42.30;98975.48;125626;1092;103412;-68
2021/06/09 19:44:16;;;;;;;17.60;7.53;;;;;;;21.29;42.30;98973.80;125667;1092;102939;-68
2021/06/09 19:46:45;;;;;;;19.77;8.27;;;;;;;21.26;42.32;98976.87;125605;1092;102913;-69
2021/06/09 19:49:13;;;;;;;21.80;7.53;;;;;;;21.24;42.55;98984.33;125675;1092;103007;-68
2021/06/09 19:51:42;;;;;;;18.77;8.57;;;;;;;21.23;42.48;98979.94;125672;1092;103023;-68
2021/06/09 19:54:12;;;;;;;19.50;9.23;;;;;;;21.22;42.62;98987.20;125585;1092;102942;-68
2021/06/09 19:56:41;;;;;;;22.67;8.90;;;;;;;21.21;42.81;98990.92;125627;1092;103026;-80
2021/06/09 19:59:09;;;;;;;25.23;9.40;;;;;;;21.18;42.82;98987.76;125761;1093;102991;-81
2021/06/09 20:01:38;;;;;;;20.00;8.27;;;;;;;21.12;42.95;98984.75;125691;1093;102957;-79
2021/06/09 20:04:08;;;;;;;17.27;7.80;;;;;;;21.09;42.77;98984.29;125545;1091;103058;-79
2021/06/09 20:06:38;;;;;;;17.80;7.83;;;;;;;21.01;42.97;98979.77;125656;1093;102946;-79
2021/06/09 20:09:08;;;;;;;19.13;7.80;;;;;;;20.97;43.05;98989.30;125540;1093;103028;-80
2021/06/09 20:11:37;;;;;;;20.50;7.70;;;;;;;20.95;43.09;98985.93;125606;1093;102913;-79
2021/06/09 20:14:07;;;;;;;19.57;8.03;;;;;;;20.89;43.21;98979.36;125557;1093;102909;-79
2021/06/09 20:16:36;;;;;;;19.37;7.53;;;;;;;20.86;43.14;98981.60;125559;1093;103078;-78
2021/06/09 20:19:08;;;;;;;15.70;7.07;;;;;;;20.77;43.16;98970.84;125599;1092;103083;-78
2021/06/09 20:21:44;;;;;;;17.57;8.13;;;;;;;20.77;43.48;98981.66;125644;1093;102981;-78
2021/06/09 20:24:24;;;;;;;21.40;8.23;;;;;;;20.77;43.49;98972.72;125589;1092;102903;-79
2021/06/09 20:29:45;;;;;;;18.07;8.87;;;;;;;20.77;43.71;98978.13;125585;1093;103087;-80
2021/06/09 20:32:14;;;;;;;20.00;7.77;;;;;;;20.75;44.16;98983.66;125503;1093;102936;-78
2021/06/09 20:34:44;;;;;;;22.23;8.93;;;;;;;20.71;43.70;98981.52;125545;1093;103021;-78
2021/06/09 20:37:13;;;;;;;22.63;9.17;;;;;;;20.71;44.07;98984.22;125501;1093;103062;-80
2021/06/09 20:39:41;;;;;;;20.60;8.70;;;;;;;20.71;44.04;98984.22;125546;1092;103081;-80
2021/06/09 20:42:13;;;;;;;20.80;9.30;;;;;;;20.71;44.07;98989.63;125632;1093;102908;-81
2021/06/09 20:44:42;;;;;;;19.80;7.80;;;;;;;20.65;44.21;98989.31;125624;1093;102965;-80
2021/06/09 20:47:10;;;;;;;18.47;8.03;;;;;;;20.61;44.08;98989.83;125648;1093;102974;-79
2021/06/09 20:49:39;;;;;;;18.70;7.67;;;;;;;20.61;44.26;98989.83;125645;1092;103029;-81
2021/06/09 20:52:11;;;;;;;20.83;7.53;;;;;;;20.59;44.41;98984.62;125711;1092;102742;-81
2021/06/09 20:54:41;;;;;;;21.40;8.10;;;;;;;20.56;44.38;98992.25;125603;1093;103085;-79
2021/06/09 20:57:10;;;;;;;20.97;9.17;;;;;;;20.46;44.62;98996.02;125607;1092;102995;-82
2021/06/09 20:59:39;;;;;;;16.40;8.20;;;;;;;20.39;44.53;98986.93;125880;1093;102908;-81
2021/06/09 21:02:12;;;;;;;18.87;8.47;;;;;;;20.41;44.66;98994.84;125594;1092;103008;-80
2021/06/09 21:04:40;;;;;;;18.57;7.73;;;;;;;20.44;44.77;98995.34;125598;1093;102904;-81
2021/06/09 21:07:10;;;;;;;21.97;8.20;;;;;;;20.46;45.09;98997.86;125595;1093;103073;-80
2021/06/09 21:09:39;;;;;;;20.60;7.95;;;;;;;20.44;44.96;98995.34;125668;1093;103058;-82
2021/06/09 21:12:09;;;;;;;22.27;8.70;;;;;;;20.43;45.19;98996.37;125682;1093;103135;-82
2021/06/09 21:14:38;;;;;;;19.30;7.90;;;;;;;20.41;45.28;98994.84;125717;1093;103092;-82
2021/06/09 21:17:06;;;;;;;19.10;7.93;;;;;;;20.38;45.33;99009.56;125699;1093;103447;-83
2021/06/09 21:19:35;;;;;;;16.87;7.77;;;;;;;20.35;45.18;99007.21;125604;1093;103417;-85
